Time;durP1;ratioP1;P1;durP2;ratioP2;P2;SDS_P1;SDS_P2;PMS_P1;PMS_P2;Temp;Humidity;BMP_temperature;BMP_pressure;BME280_temperature;BME280_humidity;BME280_pressure;Samples;Min_cycle;Max_cycle;Signal;HPM_P1;HPM_P2
2022/10/20 00:01:36;;;;;;;0.10;0.10;;;;;;;10.82;70.61;101812.69;5013030;28;20025;-77
2022/10/20 00:04:02;;;;;;;0.10;0.10;;;;;;;10.83;71.06;101819.75;5018212;28;20060;-76
2022/10/20 00:06:31;;;;;;;0.10;0.10;;;;;;;10.84;70.86;101810.88;5014675;28;20030;-77
2022/10/20 00:08:59;;;;;;;0.10;0.10;;;;;;;10.84;70.60;101810.88;5019493;28;20026;-76
2022/10/20 00:11:27;;;;;;;0.10;0.10;;;;;;;10.83;70.80;101804.72;5016295;28;20021;-77
2022/10/20 00:13:55;;;;;;;0.10;0.10;;;;;;;10.83;70.79;101801.19;5018472;28;20022;-77
2022/10/20 00:16:23;;;;;;;0.75;0.47;;;;;;;10.84;70.92;101806.50;5016068;28;20069;-77
2022/10/20 00:18:50;;;;;;;0.10;0.10;;;;;;;10.83;71.11;101810.03;5019777;28;20030;-77
2022/10/20 00:21:19;;;;;;;0.10;0.10;;;;;;;10.83;70.97;101809.16;5017996;28;20034;-77
2022/10/20 00:23:45;;;;;;;0.10;0.10;;;;;;;10.83;71.12;101799.41;5013306;28;20490;-77
2022/10/20 00:26:15;;;;;;;0.10;0.10;;;;;;;10.86;71.03;101795.00;5017216;28;20033;-77
2022/10/20 00:28:42;;;;;;;0.10;0.10;;;;;;;10.83;71.04;101787.94;5017602;28;20116;-77
2022/10/20 00:31:08;;;;;;;0.10;0.10;;;;;;;10.85;70.96;101780.84;5019248;28;20515;-77
2022/10/20 00:33:35;;;;;;;0.17;0.17;;;;;;;10.82;70.93;101786.19;5016670;28;20407;-78
2022/10/20 00:36:03;;;;;;;0.10;0.10;;;;;;;10.81;70.83;101789.72;5020334;28;20036;-77
2022/10/20 00:38:30;;;;;;;0.10;0.10;;;;;;;10.78;71.25;101781.75;5018618;28;20022;-77
2022/10/20 00:40:58;;;;;;;0.10;0.10;;;;;;;10.76;71.32;101776.47;5019779;28;20030;-77
2022/10/20 00:43:43;;;;;;;0.45;0.45;;;;;;;10.83;70.91;101777.34;5014741;28;20599;-77
2022/10/20 00:46:12;;;;;;;1.98;1.30;;;;;;;10.77;71.14;101772.06;5005251;28;20448;-78
2022/10/20 00:48:41;;;;;;;0.10;0.10;;;;;;;10.76;71.25;101773.81;5011917;28;20080;-78
2022/10/20 00:51:08;;;;;;;0.10;0.10;;;;;;;10.75;71.23;101763.25;5014657;28;20045;-78
2022/10/20 00:53:34;;;;;;;0.10;0.10;;;;;;;10.72;71.12;101772.09;5015429;28;20022;-76
2022/10/20 00:56:01;;;;;;;0.10;0.10;;;;;;;10.71;70.97;101772.13;5015134;28;20095;-77
2022/10/20 00:58:28;;;;;;;0.30;0.30;;;;;;;10.64;71.40;101766.84;5014288;28;20026;-77
2022/10/20 01:00:57;;;;;;;0.10;0.10;;;;;;;10.64;71.41;101756.25;5019318;28;20044;-77
2022/10/20 01:03:30;;;;;;;0.10;0.10;;;;;;;10.63;71.29;101754.47;5017785;28;20049;-77
2022/10/20 01:05:56;;;;;;;;;;;;;;;10.71;71.05;101751.78;5016366;28;20021;-77
2022/10/20 01:08:22;;;;;;;0.10;0.10;;;;;;;10.60;71.96;101733.28;5013030;28;19909;-77
2022/10/20 01:11:17;;;;;;;0.10;0.10;;;;;;;10.68;71.27;101735.91;5016324;28;20026;-77
2022/10/20 01:17:00;;;;;;;0.20;0.20;;;;;;;10.58;72.10;101745.69;5116369;27;20587;-77
2022/10/20 01:23:09;;;;;;;0.40;0.40;;;;;;;10.70;71.67;101722.63;5096359;27;20192;-77
2022/10/20 01:26:05;;;;;;;0.10;0.10;;;;;;;10.69;71.30;101713.78;5050681;28;20158;-77
2022/10/20 01:28:41;;;;;;;0.10;0.10;;;;;;;10.65;71.41;101709.41;5042372;28;20025;-76
2022/10/20 01:31:32;;;;;;;0.10;0.10;;;;;;;10.66;71.37;101706.72;5038225;28;20393;-75
2022/10/20 01:34:10;;;;;;;0.17;0.17;;;;;;;10.63;71.47;101695.28;5038155;28;20040;-77
2022/10/20 01:36:46;;;;;;;0.20;0.20;;;;;;;10.62;71.70;101706.78;5048747;28;20029;-77
2022/10/20 01:39:19;;;;;;;0.10;0.10;;;;;;;10.61;71.71;101705.88;5044723;28;20073;-77
2022/10/20 01:41:58;;;;;;;0.52;0.52;;;;;;;10.64;71.25;101697.03;5039887;28;20022;-77
2022/10/20 01:44:28;;;;;;;0.10;0.10;;;;;;;10.59;71.51;101688.25;5037832;28;20128;-77
2022/10/20 01:46:55;;;;;;;0.10;0.10;;;;;;;10.60;71.71;101680.28;5044703;28;20044;-77
2022/10/20 01:49:23;;;;;;;0.10;0.10;;;;;;;10.59;71.58;101683.84;5045456;28;20539;-76
2022/10/20 01:51:49;;;;;;;0.10;0.10;;;;;;;10.59;71.53;101693.53;5049809;28;20040;-76
2022/10/20 01:54:25;;;;;;;0.10;0.10;;;;;;;10.60;71.71;101685.56;5050453;28;20021;-76
2022/10/20 01:57:31;;;;;;;0.10;0.10;;;;;;;10.60;71.45;101672.31;5046094;28;20029;-77
2022/10/20 02:00:07;;;;;;;0.10;0.10;;;;;;;10.56;71.84;101667.94;5042238;28;20040;-76
2022/10/20 02:05:44;;;;;;;0.10;0.10;;;;;;;10.58;71.76;101647.63;5104674;27;20167;-77
2022/10/20 02:10:51;;;;;;;0.10;0.10;;;;;;;10.54;71.88;101647.66;5102478;27;20208;-77
2022/10/20 02:13:20;;;;;;;0.10;0.10;;;;;;;10.55;72.04;101644.13;5043711;28;20040;-77
2022/10/20 02:15:52;;;;;;;0.10;0.10;;;;;;;10.55;72.24;101633.50;5045181;28;20033;-76
2022/10/20 02:18:24;;;;;;;0.20;0.20;;;;;;;10.56;72.06;101633.50;5043459;28;20021;-77
2022/10/20 02:20:53;;;;;;;0.10;0.10;;;;;;;10.58;71.88;101630.81;5046638;28;20037;-77
2022/10/20 02:23:20;;;;;;;0.10;0.10;;;;;;;10.55;71.71;101629.06;5044155;28;20037;-77
2022/10/20 02:25:51;;;;;;;0.10;0.10;;;;;;;10.60;71.74;101618.47;5041771;28;20030;-76
2022/10/20 02:28:20;;;;;;;0.10;0.10;;;;;;;10.61;71.94;101615.78;5035380;28;20044;-77
2022/10/20 02:30:47;;;;;;;0.10;0.10;;;;;;;10.59;72.11;101607.00;5037923;28;20089;-76
2022/10/20 02:33:15;;;;;;;0.10;0.10;;;;;;;10.59;71.78;101596.38;5052478;28;20041;-77
2022/10/20 02:35:49;;;;;;;0.15;0.15;;;;;;;10.60;72.13;101584.88;5026006;28;20524;-77
2022/10/20 02:38:15;;;;;;;0.10;0.10;;;;;;;10.59;72.02;101583.13;5051206;28;20029;-76
2022/10/20 02:40:41;;;;;;;0.40;0.40;;;;;;;10.54;72.29;101584.91;5049046;28;20026;-77
2022/10/20 02:43:07;;;;;;;0.30;0.30;;;;;;;10.55;72.03;101575.22;5035016;28;20045;-77
2022/10/20 02:45:33;;;;;;;0.10;0.10;;;;;;;10.54;71.92;101571.66;5043081;28;20104;-77
2022/10/20 02:47:59;;;;;;;0.10;0.10;;;;;;;10.53;72.32;101569.94;5052289;28;20035;-77
2022/10/20 02:50:25;;;;;;;0.10;0.10;;;;;;;10.54;72.15;101566.38;5051353;28;20518;-77
2022/10/20 02:52:52;;;;;;;0.10;0.10;;;;;;;10.55;72.13;101557.53;5052369;28;20071;-77
2022/10/20 02:55:18;;;;;;;0.10;0.10;;;;;;;10.54;72.17;101552.25;5053468;28;20435;-77
2022/10/20 02:57:44;;;;;;;0.15;0.15;;;;;;;10.54;72.37;101555.78;5042921;28;20038;-77
2022/10/20 03:00:10;;;;;;;0.13;0.13;;;;;;;10.55;72.16;101554.88;5036902;28;20032;-77
2022/10/20 03:02:36;;;;;;;0.10;0.10;;;;;;;10.56;72.25;101551.34;5055212;28;20022;-76
2022/10/20 03:05:03;;;;;;;0.10;0.10;;;;;;;10.56;72.37;101540.75;5054774;28;20029;-77
2022/10/20 03:07:29;;;;;;;0.10;0.10;;;;;;;10.60;72.21;101538.94;5046325;28;20436;-76
2022/10/20 03:09:55;;;;;;;0.10;0.10;;;;;;;10.59;72.37;101543.38;5047704;28;20033;-76
2022/10/20 03:12:21;;;;;;;0.10;0.10;;;;;;;10.60;72.30;101538.94;5038724;28;20060;-76
2022/10/20 03:14:47;;;;;;;0.45;0.45;;;;;;;10.60;72.62;101520.41;5039447;28;20049;-76
2022/10/20 03:17:13;;;;;;;0.10;0.10;;;;;;;10.59;72.48;101522.19;5039379;28;20033;-77
2022/10/20 03:19:40;;;;;;;0.00;0.00;;;;;;;10.59;72.54;101540.75;5051794;28;20021;-77
2022/10/20 03:22:06;;;;;;;0.10;0.10;;;;;;;10.59;72.46;101527.50;5039457;28;20060;-77
2022/10/20 03:24:32;;;;;;;0.10;0.10;;;;;;;10.60;72.89;101515.97;5039026;28;20031;-77
2022/10/20 03:26:58;;;;;;;0.13;0.13;;;;;;;10.63;72.78;101505.34;5027116;28;20042;-77
2022/10/20 03:29:24;;;;;;;0.10;0.10;;;;;;;10.65;72.92;101500.94;5026556;28;20155;-77
2022/10/20 03:31:50;;;;;;;0.10;0.10;;;;;;;10.70;72.91;101489.41;5036400;28;20457;-77
2022/10/20 03:34:16;;;;;;;0.52;0.52;;;;;;;10.72;73.12;101493.78;5034736;28;20089;-77
2022/10/20 03:36:43;;;;;;;0.10;0.10;;;;;;;10.75;72.85;101495.53;5038721;28;20041;-77
2022/10/20 03:39:09;;;;;;;0.10;0.10;;;;;;;10.75;73.26;101483.13;5036081;28;20021;-77
2022/10/20 03:41:35;;;;;;;0.10;0.10;;;;;;;10.77;73.19;101488.44;5028780;28;20029;-77
2022/10/20 03:44:01;;;;;;;0.10;0.10;;;;;;;10.80;73.05;101501.66;5030903;28;20029;-77
2022/10/20 03:46:27;;;;;;;0.20;0.20;;;;;;;10.76;73.79;101494.63;5037532;28;20032;-77
2022/10/20 03:48:53;;;;;;;0.10;0.10;;;;;;;10.81;73.32;101488.38;5032613;28;20052;-77
2022/10/20 03:51:19;;;;;;;0.10;0.10;;;;;;;10.87;73.53;101492.75;5037643;28;20030;-76
2022/10/20 03:53:45;;;;;;;0.10;0.10;;;;;;;10.89;73.25;101488.31;5037016;28;20083;-77
2022/10/20 03:56:16;;;;;;;0.10;0.10;;;;;;;10.92;73.78;101475.00;5021637;28;20057;-77
2022/10/20 03:58:43;;;;;;;0.10;0.10;;;;;;;10.97;72.93;101467.88;5014976;28;20025;-77
2022/10/20 04:01:15;;;;;;;0.43;0.43;;;;;;;11.01;73.37;101458.13;5037851;28;20030;-77
2022/10/20 04:03:42;;;;;;;0.30;0.30;;;;;;;11.10;73.10;101451.81;5037879;28;20034;-77
2022/10/20 04:06:08;;;;;;;0.22;0.22;;;;;;;11.14;72.91;101461.47;5035701;28;20048;-77
2022/10/20 04:08:34;;;;;;;0.90;0.43;;;;;;;11.15;72.96;101471.22;5009453;28;20026;-77
2022/10/20 04:11:00;;;;;;;0.10;0.10;;;;;;;11.13;73.51;101476.53;5022857;28;20109;-77
2022/10/20 04:13:26;;;;;;;0.10;0.10;;;;;;;11.19;73.57;101475.59;5024657;28;20504;-77
2022/10/20 04:15:52;;;;;;;0.20;0.20;;;;;;;11.24;73.67;101481.72;5020474;28;20048;-77
2022/10/20 04:18:18;;;;;;;0.10;0.10;;;;;;;11.23;74.10;101479.97;5033340;28;20029;-77
2022/10/20 04:20:44;;;;;;;0.10;0.10;;;;;;;11.25;74.11;101472.88;5037078;28;20036;-77
2022/10/20 04:23:10;;;;;;;0.20;0.20;;;;;;;11.28;73.66;101467.50;5030469;28;20033;-77
2022/10/20 04:25:44;;;;;;;0.10;0.10;;;;;;;11.35;73.63;101468.28;5025117;28;20041;-77
2022/10/20 04:28:11;;;;;;;0.15;0.15;;;;;;;11.37;73.93;101455.91;5030164;28;20049;-77
2022/10/20 04:30:38;;;;;;;0.10;0.10;;;;;;;11.38;74.23;101467.41;5035505;28;20025;-77
2022/10/20 04:33:05;;;;;;;0.10;0.10;;;;;;;11.48;73.53;101461.94;5031661;28;20042;-77
2022/10/20 04:35:31;;;;;;;0.10;0.10;;;;;;;11.51;73.68;101454.84;5028246;28;20026;-77
2022/10/20 04:37:57;;;;;;;0.20;0.20;;;;;;;11.56;73.20;101451.19;5035084;28;20029;-77
2022/10/20 04:40:23;;;;;;;0.30;0.30;;;;;;;11.57;73.57;101447.66;5020163;28;20056;-77
2022/10/20 04:42:49;;;;;;;1.08;0.85;;;;;;;11.61;73.23;101453.78;5022293;28;20033;-77
2022/10/20 04:45:15;;;;;;;0.10;0.10;;;;;;;11.61;73.16;101444.06;5019942;28;20060;-77
2022/10/20 04:47:41;;;;;;;0.47;0.47;;;;;;;11.54;73.75;101442.41;5032070;28;20030;-77
2022/10/20 04:50:08;;;;;;;0.10;0.10;;;;;;;11.55;73.97;101444.16;5029298;28;20025;-77
2022/10/20 04:52:34;;;;;;;0.13;0.13;;;;;;;11.57;72.92;101431.72;5031841;28;20089;-76
2022/10/20 04:55:00;;;;;;;0.10;0.10;;;;;;;11.59;73.23;101426.38;5028842;28;20037;-76
2022/10/20 04:57:27;;;;;;;0.17;0.17;;;;;;;11.58;73.48;101422.88;5031022;28;20037;-77
2022/10/20 04:59:53;;;;;;;0.10;0.10;;;;;;;11.59;73.70;101416.66;5029303;28;20068;-77
2022/10/20 05:02:19;;;;;;;0.10;0.10;;;;;;;11.63;73.29;101431.63;5020582;28;20033;-77
2022/10/20 05:04:45;;;;;;;0.10;0.10;;;;;;;11.64;72.96;101433.41;5029506;28;20029;-77
2022/10/20 05:07:12;;;;;;;0.20;0.20;;;;;;;11.60;73.01;101426.38;5033148;28;20049;-77
2022/10/20 05:09:38;;;;;;;0.85;0.70;;;;;;;11.62;73.53;101411.28;5016582;28;20112;-76
2022/10/20 05:12:04;;;;;;;0.13;0.13;;;;;;;11.61;73.27;101396.31;5022857;28;20533;-77
2022/10/20 05:14:30;;;;;;;0.10;0.10;;;;;;;11.64;73.48;101385.63;5018287;28;20041;-77
2022/10/20 05:16:56;;;;;;;0.70;0.70;;;;;;;11.67;72.91;101390.00;5018957;28;20119;-77
2022/10/20 05:19:22;;;;;;;0.10;0.10;;;;;;;11.60;73.66;101383.94;5014939;28;20038;-76
2022/10/20 05:21:48;;;;;;;0.20;0.20;;;;;;;11.69;72.83;101387.31;5025388;28;20033;-77
2022/10/20 05:24:17;;;;;;;0.10;0.10;;;;;;;11.70;72.81;101389.06;5019359;28;20429;-77
2022/10/20 05:26:43;;;;;;;0.10;0.10;;;;;;;11.68;72.90;101391.75;5027803;28;20037;-77
2022/10/20 05:29:10;;;;;;;0.77;0.77;;;;;;;11.69;73.32;101388.22;5021377;28;20060;-76
2022/10/20 05:31:40;;;;;;;0.77;0.77;;;;;;;11.74;72.98;101366.88;5028042;28;20037;-76
2022/10/20 05:34:07;;;;;;;0.20;0.20;;;;;;;11.73;72.97;101371.31;5029835;28;20099;-77
2022/10/20 05:36:33;;;;;;;0.22;0.22;;;;;;;11.74;73.10;101377.50;5022172;28;20592;-76
2022/10/20 05:38:59;;;;;;;1.08;0.70;;;;;;;11.74;73.28;101353.59;5017165;28;20040;-77
2022/10/20 05:41:29;;;;;;;0.10;0.10;;;;;;;11.78;72.63;101350.03;5021432;28;20045;-77
2022/10/20 05:43:59;;;;;;;1.23;0.65;;;;;;;11.77;72.89;101349.13;5028522;28;20041;-77
2022/10/20 05:46:28;;;;;;;0.15;0.15;;;;;;;11.80;73.24;101342.88;5019676;28;20382;-76
2022/10/20 05:48:58;;;;;;;0.13;0.13;;;;;;;11.81;73.03;101349.94;5030059;28;20026;-77
2022/10/20 05:51:27;;;;;;;0.10;0.10;;;;;;;11.79;73.19;101351.78;5029015;28;20056;-77
2022/10/20 05:53:55;;;;;;;0.10;0.10;;;;;;;11.81;73.40;101350.84;5023161;28;20049;-77
2022/10/20 05:56:23;;;;;;;0.10;0.10;;;;;;;11.78;72.93;101350.03;5020382;28;20040;-78
2022/10/20 05:58:49;;;;;;;0.20;0.20;;;;;;;11.78;73.46;101336.75;5015815;28;20104;-77
2022/10/20 06:01:19;;;;;;;0.13;0.13;;;;;;;11.74;73.10;101353.59;5020340;28;20033;-76
2022/10/20 06:03:49;;;;;;;0.20;0.20;;;;;;;11.68;73.87;101359.03;5017120;28;20026;-76
2022/10/20 06:06:15;;;;;;;0.50;0.50;;;;;;;11.64;73.75;101356.44;5015919;28;20037;-77
2022/10/20 06:08:41;;;;;;;0.52;0.52;;;;;;;11.64;73.17;101368.84;5013845;28;20030;-77
2022/10/20 06:11:10;;;;;;;0.20;0.20;;;;;;;11.62;73.60;101344.06;5015972;28;20030;-77
2022/10/20 06:13:36;;;;;;;0.68;0.68;;;;;;;11.61;73.68;101337.00;5016104;28;20160;-77
2022/10/20 06:16:08;;;;;;;0.43;0.43;;;;;;;11.63;73.56;101341.41;5016644;28;20388;-77
2022/10/20 06:18:37;;;;;;;0.38;0.38;;;;;;;11.62;73.98;101346.75;5016817;28;20030;-77
2022/10/20 06:21:06;;;;;;;2.65;0.80;;;;;;;11.61;73.63;101335.25;5017917;28;20034;-77
2022/10/20 06:23:33;;;;;;;1.17;1.08;;;;;;;11.65;73.71;101344.91;5021049;28;20116;-77
2022/10/20 06:26:09;;;;;;;0.43;0.25;;;;;;;11.69;74.25;101334.22;5017089;28;20037;-77
2022/10/20 06:28:37;;;;;;;0.10;0.10;;;;;;;11.68;73.51;101322.75;5016604;28;20053;-77
2022/10/20 06:31:20;;;;;;;0.30;0.30;;;;;;;11.77;73.94;101327.88;5017253;28;20493;-77
2022/10/20 06:33:47;;;;;;;0.10;0.10;;;;;;;11.73;73.35;101330.63;5032842;28;20029;-77
2022/10/20 06:36:14;;;;;;;0.10;0.10;;;;;;;11.77;74.04;101332.34;5032013;28;20042;-77
2022/10/20 06:38:41;;;;;;;1.65;0.73;;;;;;;11.80;73.99;101329.59;5020817;28;20058;-77
2022/10/20 06:41:10;;;;;;;0.10;0.10;;;;;;;11.84;73.10;101344.59;5017494;28;20061;-77
2022/10/20 06:43:37;;;;;;;0.35;0.35;;;;;;;11.86;73.48;101366.66;5015708;28;20050;-77
2022/10/20 06:46:05;;;;;;;0.20;0.20;;;;;;;11.92;73.38;101369.22;5016076;28;20037;-79
2022/10/20 06:48:33;;;;;;;0.40;0.40;;;;;;;11.95;73.27;101369.19;5016185;28;20033;-77
2022/10/20 06:51:01;;;;;;;0.10;0.10;;;;;;;12.05;73.49;101342.50;5015802;28;20034;-77
2022/10/20 06:53:28;;;;;;;0.25;0.25;;;;;;;12.09;72.80;101341.53;5014272;28;20112;-77
2022/10/20 06:56:05;;;;;;;0.13;0.13;;;;;;;12.17;73.40;101330.78;5016267;28;20426;-77
2022/10/20 06:58:33;;;;;;;0.10;0.10;;;;;;;12.17;73.38;101334.28;5019096;28;20029;-77
2022/10/20 07:01:03;;;;;;;0.40;0.40;;;;;;;12.19;73.11;101335.16;5024087;28;20033;-77
2022/10/20 07:03:30;;;;;;;0.52;0.52;;;;;;;12.24;72.85;101333.28;5018296;28;20025;-77
2022/10/20 07:05:57;;;;;;;0.10;0.10;;;;;;;12.27;72.73;101317.28;5017639;28;20037;-77
2022/10/20 07:08:26;;;;;;;0.40;0.40;;;;;;;12.29;73.51;101319.91;5017907;28;20033;-77
2022/10/20 07:13:36;;;;;;;0.22;0.22;;;;;;;12.42;73.20;101323.19;5118424;27;20154;-77
2022/10/20 07:16:06;;;;;;;0.10;0.10;;;;;;;12.47;72.54;101329.28;5069207;28;20112;-77
2022/10/20 07:18:32;;;;;;;0.25;0.25;;;;;;;12.47;72.91;101318.66;5066929;28;20452;-76
2022/10/20 07:21:01;;;;;;;0.10;0.10;;;;;;;12.52;72.70;101326.53;5068736;28;20025;-78
2022/10/20 07:23:29;;;;;;;0.10;0.10;;;;;;;12.56;73.17;101329.13;5056128;28;20037;-78
2022/10/20 07:26:15;;;;;;;0.20;0.20;;;;;;;12.68;72.61;101321.78;5055144;28;20078;-77
2022/10/20 07:28:43;;;;;;;0.10;0.10;;;;;;;12.65;73.07;101321.84;5047108;28;20489;-77
2022/10/20 07:31:13;;;;;;;0.32;0.32;;;;;;;12.71;73.28;101316.41;5050278;28;20393;-77
2022/10/20 07:33:40;;;;;;;0.10;0.10;;;;;;;12.74;72.33;101326.97;5064317;28;20032;-78
2022/10/20 07:36:16;;;;;;;0.10;0.10;;;;;;;12.80;72.61;101324.19;5064628;28;20029;-78
2022/10/20 07:38:43;;;;;;;1.00;1.00;;;;;;;12.84;73.06;101317.88;5062494;28;20017;-77
2022/10/20 07:41:09;;;;;;;0.30;0.30;;;;;;;12.87;72.41;101301.88;5051527;28;20051;-77
2022/10/20 07:43:37;;;;;;;0.10;0.10;;;;;;;12.90;72.45;101299.13;5058804;28;20029;-77
2022/10/20 07:46:03;;;;;;;0.35;0.35;;;;;;;12.94;72.26;101303.47;5060436;28;20024;-77
2022/10/20 07:48:29;;;;;;;0.85;0.45;;;;;;;12.94;71.98;101303.47;5058265;28;20029;-77
2022/10/20 07:51:14;;;;;;;0.10;0.10;;;;;;;13.02;72.24;101310.41;5061944;28;20108;-77
2022/10/20 07:53:40;;;;;;;4.05;1.30;;;;;;;12.97;72.92;101299.00;5055436;28;20032;-77
2022/10/20 07:56:06;;;;;;;1.13;1.13;;;;;;;13.03;72.24;101315.69;5060749;28;20150;-77
2022/10/20 07:58:32;;;;;;;0.10;0.10;;;;;;;13.08;72.21;101310.25;5055733;28;20036;-78
2022/10/20 08:00:58;;;;;;;0.10;0.10;;;;;;;13.11;72.21;101307.56;5061694;28;20040;-77
2022/10/20 08:03:24;;;;;;;1.35;0.73;;;;;;;13.17;72.21;101314.50;5056413;28;20040;-77
2022/10/20 08:05:50;;;;;;;0.15;0.15;;;;;;;13.20;72.39;101312.66;5057447;28;20381;-76
2022/10/20 08:08:16;;;;;;;0.22;0.22;;;;;;;13.24;72.39;101295.69;5052240;28;20492;-77
2022/10/20 08:10:42;;;;;;;0.40;0.40;;;;;;;13.31;72.05;101303.53;5053217;28;20037;-76
2022/10/20 08:13:08;;;;;;;0.25;0.25;;;;;;;13.27;71.59;101300.94;5058984;28;20029;-77
2022/10/20 08:15:35;;;;;;;0.10;0.10;;;;;;;13.33;71.74;101296.38;5054922;28;20095;-77
2022/10/20 08:18:01;;;;;;;0.10;0.10;;;;;;;13.35;72.07;101297.25;5055287;28;20043;-76
2022/10/20 08:20:27;;;;;;;1.05;0.95;;;;;;;13.36;71.58;101304.31;5048456;28;20420;-77
2022/10/20 08:22:53;;;;;;;0.25;0.25;;;;;;;13.40;72.04;101306.88;5055559;28;20492;-77
2022/10/20 08:25:19;;;;;;;0.50;0.50;;;;;;;13.43;71.73;101292.63;5035426;28;20036;-77
2022/10/20 08:27:45;;;;;;;2.90;0.68;;;;;;;13.43;71.59;101290.84;5037062;28;20473;-76
2022/10/20 08:30:11;;;;;;;0.10;0.10;;;;;;;13.50;71.79;101296.88;5045046;28;20372;-77
2022/10/20 08:32:37;;;;;;;0.85;0.85;;;;;;;13.57;71.69;101287.84;5036888;28;20044;-77
2022/10/20 08:35:03;;;;;;;0.10;0.10;;;;;;;13.59;71.59;101285.13;5047740;28;20041;-78
2022/10/20 08:37:31;;;;;;;0.35;0.35;;;;;;;13.62;71.57;101278.84;5046551;28;20071;-78
2022/10/20 08:39:57;;;;;;;0.10;0.10;;;;;;;13.66;71.69;101280.53;5056901;28;20036;-78
2022/10/20 08:42:25;;;;;;;0.30;0.30;;;;;;;13.71;71.47;101278.63;5062684;28;20029;-78
2022/10/20 08:44:58;;;;;;;0.00;0.00;;;;;;;13.75;71.25;101275.81;5061441;28;20031;-77
2022/10/20 08:47:28;;;;;;;0.00;0.00;;;;;;;13.82;71.08;101271.22;5048873;28;20029;-78
2022/10/20 08:49:55;;;;;;;0.15;0.15;;;;;;;13.85;71.13;101276.44;5035230;28;20025;-78
2022/10/20 08:52:24;;;;;;;1.17;1.08;;;;;;;13.85;70.80;101273.78;5053432;28;20049;-77
2022/10/20 08:54:54;;;;;;;0.13;0.13;;;;;;;13.92;71.44;101269.19;5052222;28;20029;-78
2022/10/20 08:57:26;;;;;;;0.50;0.50;;;;;;;13.96;71.20;101260.19;5061075;28;20102;-77
2022/10/20 08:59:55;;;;;;;0.40;0.40;;;;;;;14.01;71.29;101266.25;5060182;28;20021;-78
2022/10/20 09:02:21;;;;;;;0.32;0.32;;;;;;;14.03;70.96;101258.22;5052226;28;20032;-77
2022/10/20 09:04:53;;;;;;;0.20;0.20;;;;;;;14.11;71.00;101258.88;5048376;28;20116;-78
2022/10/20 09:10:24;;;;;;;0.13;0.13;;;;;;;14.29;71.17;101257.47;5131953;27;20187;-78
2022/10/20 09:12:51;;;;;;;0.35;0.35;;;;;;;14.37;70.71;101251.94;5117463;28;20469;-78
2022/10/20 09:15:19;;;;;;;0.35;0.35;;;;;;;14.42;70.86;101250.00;5117858;28;20507;-77
2022/10/20 09:17:52;;;;;;;0.43;0.43;;;;;;;14.45;70.73;101243.72;5116685;28;20042;-77
2022/10/20 09:20:26;;;;;;;0.75;0.75;;;;;;;14.53;70.86;101239.91;5099195;28;20046;-78
2022/10/20 09:22:52;;;;;;;0.52;0.38;;;;;;;14.55;70.94;101227.41;5096352;28;20044;-78
2022/10/20 09:25:24;;;;;;;0.13;0.13;;;;;;;14.60;70.65;101227.22;5101870;28;20054;-78
2022/10/20 09:27:52;;;;;;;0.10;0.10;;;;;;;14.66;70.83;101218.22;5117144;28;20080;-77
2022/10/20 09:32:56;;;;;;;0.20;0.20;;;;;;;14.80;70.72;101223.97;5109364;27;20162;-78
2022/10/20 09:38:21;;;;;;;3.63;0.77;;;;;;;15.01;70.73;101210.88;5127645;27;20182;-79
2022/10/20 09:41:01;;;;;;;0.50;0.50;;;;;;;15.09;70.65;101213.28;5106584;28;20407;-78
2022/10/20 09:43:27;;;;;;;0.10;0.10;;;;;;;15.14;70.36;101228.25;5118369;28;20570;-78
2022/10/20 09:45:59;;;;;;;0.10;0.10;;;;;;;15.20;70.29;101220.03;5116277;28;20040;-77
2022/10/20 09:48:30;;;;;;;0.97;0.97;;;;;;;15.31;70.22;101213.44;5101900;28;20035;-77
2022/10/20 09:50:59;;;;;;;0.10;0.10;;;;;;;15.36;70.28;101227.50;5096794;28;20035;-77
2022/10/20 09:53:32;;;;;;;0.10;0.10;;;;;;;15.44;70.24;101225.47;5101601;28;20040;-78
2022/10/20 09:55:58;;;;;;;0.17;0.17;;;;;;;15.45;70.22;101226.31;5104888;28;20035;-78
2022/10/20 09:58:29;;;;;;;0.20;0.20;;;;;;;15.52;70.07;101206.50;5104625;28;20043;-77
2022/10/20 10:01:00;;;;;;;0.55;0.40;;;;;;;15.57;70.10;101215.22;5093529;28;20097;-78
2022/10/20 10:03:26;;;;;;;0.10;0.10;;;;;;;15.60;70.00;101203.56;5093913;28;20020;-78
2022/10/20 10:05:58;;;;;;;0.88;0.88;;;;;;;15.65;70.08;101207.81;5096392;28;20048;-77
2022/10/20 10:08:28;;;;;;;0.43;0.43;;;;;;;15.69;69.87;101203.25;5087614;28;20299;-76
2022/10/20 10:11:02;;;;;;;0.28;0.28;;;;;;;15.71;69.66;101205.84;5094560;28;20101;-78
2022/10/20 10:13:42;;;;;;;0.10;0.10;;;;;;;15.69;69.77;101197.91;5095488;28;20028;-77
2022/10/20 10:16:13;;;;;;;0.30;0.30;;;;;;;15.78;69.68;101191.34;5089824;28;20040;-78
2022/10/20 10:18:40;;;;;;;0.63;0.63;;;;;;;15.78;70.02;101165.50;5094008;28;20036;-78
2022/10/20 10:21:10;;;;;;;0.35;0.35;;;;;;;15.80;70.01;101174.34;5092514;28;20039;-78
2022/10/20 10:23:55;;;;;;;0.10;0.10;;;;;;;15.82;69.97;101187.66;5093949;28;20032;-77
2022/10/20 10:26:44;;;;;;;0.15;0.15;;;;;;;15.87;70.01;101174.16;5081398;28;20020;-77
2022/10/20 10:32:11;;;;;;;0.57;0.57;;;;;;;15.87;70.63;101163.47;5125608;27;20157;-78
2022/10/20 10:37:16;;;;;;;0.77;0.77;;;;;;;15.85;71.26;101145.69;5109258;27;20117;-78
2022/10/20 10:39:43;;;;;;;0.25;0.25;;;;;;;15.88;71.04;101142.03;5022238;28;20150;-78
2022/10/20 10:45:11;;;;;;;0.65;0.65;;;;;;;15.94;71.48;101120.41;5093282;27;20135;-78
2022/10/20 10:48:00;;;;;;;0.10;0.10;;;;;;;15.97;71.54;101116.75;5058447;28;20118;-77
2022/10/20 10:50:53;;;;;;;0.43;0.43;;;;;;;15.94;71.64;101112.41;5052178;28;20025;-77
2022/10/20 10:53:46;;;;;;;0.30;0.30;;;;;;;15.96;71.51;101115.00;5053139;28;20122;-77
2022/10/20 10:56:42;;;;;;;0.10;0.10;;;;;;;15.91;72.09;101128.53;5055375;28;20377;-78
2022/10/20 11:02:25;;;;;;;0.10;0.10;;;;;;;15.93;71.80;101129.34;5109228;27;20164;-77
2022/10/20 11:05:10;;;;;;;0.17;0.17;;;;;;;15.92;72.08;101105.38;5096282;28;20527;-78
2022/10/20 11:08:03;;;;;;;0.10;0.10;;;;;;;15.92;72.22;101114.25;5100023;28;20024;-78
2022/10/20 11:14:00;;;;;;;0.28;0.28;;;;;;;15.97;72.57;101111.41;5148013;27;87466;-77
2022/10/20 11:16:39;;;;;;;0.10;0.10;;;;;;;15.98;72.25;101097.13;5121428;28;20122;-77
2022/10/20 11:22:10;;;;;;;0.98;0.85;;;;;;;16.02;71.93;101098.72;5119723;27;20151;-78
2022/10/20 11:25:01;;;;;;;0.63;0.63;;;;;;;16.06;73.33;101105.69;5110602;28;20047;-79
2022/10/20 11:27:34;;;;;;;0.28;0.28;;;;;;;16.04;73.92;101110.25;5113148;28;20088;-78
2022/10/20 11:30:14;;;;;;;0.10;0.10;;;;;;;16.17;72.86;101111.53;5107719;28;20039;-77
2022/10/20 11:32:50;;;;;;;0.00;0.00;;;;;;;16.28;73.63;101105.72;5113299;27;20483;-78
2022/10/20 11:40:57;;;;;;;2.45;0.75;;;;;;;16.56;73.44;101093.94;5080975;27;20155;-78
2022/10/20 11:43:47;;;;;;;0.10;0.10;;;;;;;16.62;73.44;101093.69;5049001;28;20036;-78
2022/10/20 11:46:19;;;;;;;0.85;0.85;;;;;;;16.60;73.12;101084.84;5046371;28;20025;-78
2022/10/20 11:48:50;;;;;;;0.20;0.20;;;;;;;16.68;72.86;101087.19;5051315;28;20392;-78
2022/10/20 11:54:25;;;;;;;4.18;1.73;;;;;;;16.68;73.46;101100.56;5102304;27;20179;-76
2022/10/20 11:57:04;;;;;;;0.10;0.10;;;;;;;16.70;73.43;101105.84;5082354;28;20043;-78
2022/10/20 12:03:06;;;;;;;0.80;0.80;;;;;;;16.62;73.85;101111.53;5134937;27;20482;-78
2022/10/20 12:06:01;;;;;;;0.10;0.10;;;;;;;16.65;73.27;101133.66;5076904;28;20142;-76
2022/10/20 12:09:07;;;;;;;0.35;0.35;;;;;;;16.59;73.02;101130.38;5078432;28;20040;-78
2022/10/20 12:19:30;;;;;;;1.10;0.90;;;;;;;16.30;74.82;101116.38;5111354;27;20513;-77
2022/10/20 12:22:00;;;;;;;3.08;0.63;;;;;;;16.36;74.76;101108.09;5069760;28;20044;-77
2022/10/20 12:24:38;;;;;;;0.25;0.25;;;;;;;16.42;74.53;101107.84;5071119;28;20021;-78
2022/10/20 12:27:18;;;;;;;0.10;0.10;;;;;;;16.45;74.48;101110.41;5068439;28;20025;-78
2022/10/20 12:35:00;;;;;;;0.10;0.10;;;;;;;16.45;74.80;101106.88;5100283;27;20165;-77
2022/10/20 12:37:33;;;;;;;0.10;0.10;;;;;;;16.49;74.99;101100.47;5093646;28;20115;-77
2022/10/20 12:40:21;;;;;;;0.32;0.30;;;;;;;16.57;74.73;101102.81;5091805;28;20039;-77
2022/10/20 12:42:53;;;;;;;0.20;0.20;;;;;;;16.58;74.60;101099.22;5093919;28;20049;-77
2022/10/20 12:47:58;;;;;;;1.00;0.90;;;;;;;16.58;74.99;101093.84;5122677;27;20210;-78